Time;durP1;ratioP1;P1;durP2;ratioP2;P2;SDS_P1;SDS_P2;PMS_P1;PMS_P2;Temp;Humidity;BMP_temperature;BMP_pressure;BME280_temperature;BME280_humidity;BME280_pressure;Samples;Min_cycle;Max_cycle;Signal;HPM_P1;HPM_P2
2024/01/09 00:01:17;;;;;;;8.23;3.80;;;;;;;;;;5084529;28;20039;-74
2024/01/09 00:03:43;;;;;;;5.63;4.00;;;;;;;;;;5083781;28;20120;-73
2024/01/09 00:06:14;;;;;;;7.60;4.10;;;;;;;;;;5066872;28;20048;-74
2024/01/09 00:08:40;;;;;;;7.45;4.13;;;;;;;;;;5081270;28;20052;-73
2024/01/09 00:11:06;;;;;;;7.85;3.88;;;;;;;;;;5065408;28;20040;-73
2024/01/09 00:13:32;;;;;;;8.20;4.28;;;;;;;;;;5084572;28;20105;-74
2024/01/09 00:15:58;;;;;;;7.40;3.78;;;;;;;;;;5082729;28;20092;-73
2024/01/09 00:18:24;;;;;;;8.70;4.10;;;;;;;;;;5080942;28;20052;-73
2024/01/09 00:20:50;;;;;;;8.63;3.58;;;;;;;;;;5082782;28;20040;-73
2024/01/09 00:23:16;;;;;;;6.45;3.75;;;;;;;;;;5074267;28;20095;-74
2024/01/09 00:25:42;;;;;;;5.43;3.53;;;;;;;;;;5089643;28;20057;-73
2024/01/09 00:28:08;;;;;;;5.28;3.15;;;;;;;;;;5091756;28;20043;-73
2024/01/09 00:30:34;;;;;;;7.20;3.80;;;;;;;;;;5086065;28;20652;-73
2024/01/09 00:33:00;;;;;;;6.93;4.07;;;;;;;;;;5085137;28;20059;-74
2024/01/09 00:35:26;;;;;;;6.22;3.80;;;;;;;;;;5083951;28;20044;-74
2024/01/09 00:37:53;;;;;;;6.47;3.60;;;;;;;;;;5084968;28;20177;-74
2024/01/09 00:40:19;;;;;;;9.20;4.15;;;;;;;;;;5085547;28;20119;-73
2024/01/09 00:42:45;;;;;;;7.30;3.78;;;;;;;;;;5084701;28;20048;-74
2024/01/09 00:45:11;;;;;;;7.20;4.55;;;;;;;;;;5088492;28;20052;-73
2024/01/09 00:47:37;;;;;;;7.68;3.63;;;;;;;;;;5088657;28;20536;-74
2024/01/09 00:50:03;;;;;;;9.45;3.97;;;;;;;;;;5088135;28;20050;-74
2024/01/09 00:52:29;;;;;;;5.40;3.70;;;;;;;;;;5087975;28;20079;-73
2024/01/09 00:54:55;;;;;;;10.02;3.88;;;;;;;;;;5083827;28;20059;-74
2024/01/09 00:57:21;;;;;;;5.95;3.63;;;;;;;;;;5068097;28;20048;-73
2024/01/09 00:59:47;;;;;;;7.20;3.58;;;;;;;;;;5084049;28;20035;-73
2024/01/09 01:02:14;;;;;;;6.45;3.58;;;;;;;;;;5083748;28;20044;-73
2024/01/09 01:04:40;;;;;;;6.05;3.25;;;;;;;;;;5087307;28;20160;-74
2024/01/09 01:07:06;;;;;;;6.45;3.30;;;;;;;;;;5091304;28;20125;-74
2024/01/09 01:09:32;;;;;;;5.35;3.42;;;;;;;;;;5093294;28;20112;-74
2024/01/09 01:11:58;;;;;;;5.40;3.40;;;;;;;;;;5087272;28;20432;-74
2024/01/09 01:14:24;;;;;;;7.60;3.83;;;;;;;;;;5088679;28;20139;-73
2024/01/09 01:16:50;;;;;;;7.28;3.33;;;;;;;;;;5087421;28;20051;-74
2024/01/09 01:19:16;;;;;;;5.47;2.90;;;;;;;;;;5085675;28;20171;-73
2024/01/09 01:21:42;;;;;;;5.60;4.07;;;;;;;;;;5083345;28;20827;-73
2024/01/09 01:24:09;;;;;;;5.95;3.90;;;;;;;;;;5084721;28;20052;-73
2024/01/09 01:26:37;;;;;;;9.25;4.05;;;;;;;;;;5084772;28;20063;-74
2024/01/09 01:29:03;;;;;;;6.00;3.45;;;;;;;;;;5071696;28;20725;-74
2024/01/09 01:31:29;;;;;;;7.38;3.10;;;;;;;;;;5085076;28;20062;-73
2024/01/09 01:33:55;;;;;;;6.80;3.40;;;;;;;;;;5090847;28;20047;-74
2024/01/09 01:36:21;;;;;;;8.55;3.70;;;;;;;;;;5089987;28;20044;-74
2024/01/09 01:38:47;;;;;;;5.28;3.35;;;;;;;;;;5093045;28;20051;-73
2024/01/09 01:41:13;;;;;;;6.50;3.38;;;;;;;;;;5087725;28;20127;-73
2024/01/09 01:43:39;;;;;;;5.53;3.78;;;;;;;;;;5083278;28;20139;-73
2024/01/09 01:46:06;;;;;;;4.88;2.92;;;;;;;;;;5083009;28;20063;-73
2024/01/09 01:48:32;;;;;;;5.70;3.20;;;;;;;;;;5088273;28;20089;-73
2024/01/09 01:50:59;;;;;;;5.57;3.10;;;;;;;;;;5090939;28;20055;-74
2024/01/09 01:53:26;;;;;;;8.55;3.53;;;;;;;;;;5068341;28;20079;-73
2024/01/09 01:55:52;;;;;;;6.07;3.50;;;;;;;;;;5088240;28;20131;-73
2024/01/09 01:58:19;;;;;;;7.18;3.40;;;;;;;;;;5086785;28;20131;-73
2024/01/09 02:00:45;;;;;;;6.65;3.80;;;;;;;;;;5089504;28;20047;-73
2024/01/09 02:03:12;;;;;;;7.25;3.38;;;;;;;;;;5083784;28;20039;-73
2024/01/09 02:05:38;;;;;;;4.95;3.28;;;;;;;;;;5085322;28;20122;-73
2024/01/09 02:08:05;;;;;;;9.60;3.90;;;;;;;;;;5067721;28;20070;-73
2024/01/09 02:10:31;;;;;;;5.57;3.60;;;;;;;;;;5084225;28;20048;-74
2024/01/09 02:12:57;;;;;;;9.02;4.00;;;;;;;;;;5083953;28;20071;-74
2024/01/09 02:15:23;;;;;;;7.82;3.35;;;;;;;;;;5092561;28;20074;-74
2024/01/09 02:17:49;;;;;;;7.90;3.78;;;;;;;;;;5091905;28;20489;-74
2024/01/09 02:20:15;;;;;;;8.18;3.72;;;;;;;;;;5092184;28;20044;-73
2024/01/09 02:22:41;;;;;;;7.30;4.05;;;;;;;;;;5085193;28;20044;-74
2024/01/09 02:25:08;;;;;;;5.70;3.38;;;;;;;;;;5084931;28;20054;-74
2024/01/09 02:27:51;;;;;;;7.57;3.65;;;;;;;;;;5083147;28;20131;-73
2024/01/09 02:30:17;;;;;;;6.65;3.67;;;;;;;;;;5092635;28;20043;-74
2024/01/09 02:32:43;;;;;;;8.10;4.13;;;;;;;;;;5083317;28;20040;-74
2024/01/09 02:35:09;;;;;;;7.95;3.97;;;;;;;;;;5081385;28;20492;-73
2024/01/09 02:37:35;;;;;;;8.30;4.25;;;;;;;;;;5081505;28;20069;-74
2024/01/09 02:40:03;;;;;;;6.55;3.70;;;;;;;;;;5081507;28;20051;-74
2024/01/09 02:42:29;;;;;;;6.78;3.50;;;;;;;;;;5082897;28;20048;-74
2024/01/09 02:44:55;;;;;;;6.65;4.22;;;;;;;;;;5081378;28;20048;-74
2024/01/09 02:47:22;;;;;;;7.60;4.00;;;;;;;;;;5081483;28;20050;-74
2024/01/09 02:49:48;;;;;;;6.88;4.50;;;;;;;;;;5083136;28;20039;-74
2024/01/09 02:52:15;;;;;;;7.82;3.80;;;;;;;;;;5081351;28;20040;-74
2024/01/09 02:54:41;;;;;;;7.00;3.95;;;;;;;;;;5082837;28;20044;-74
2024/01/09 02:57:07;;;;;;;8.35;3.92;;;;;;;;;;5081743;28;20048;-74
2024/01/09 02:59:33;;;;;;;7.50;3.47;;;;;;;;;;5083222;28;20553;-73
2024/01/09 03:01:59;;;;;;;5.97;3.70;;;;;;;;;;5082743;28;20039;-74
2024/01/09 03:04:25;;;;;;;9.40;3.30;;;;;;;;;;5064843;28;20044;-73
2024/01/09 03:06:51;;;;;;;8.25;4.32;;;;;;;;;;5082623;28;20036;-74
2024/01/09 03:09:17;;;;;;;6.70;3.20;;;;;;;;;;5083101;28;20082;-74
2024/01/09 03:11:43;;;;;;;9.48;4.13;;;;;;;;;;5082913;28;20051;-74
2024/01/09 03:14:10;;;;;;;6.28;3.63;;;;;;;;;;5091495;28;20052;-74
2024/01/09 03:16:36;;;;;;;7.50;3.72;;;;;;;;;;5064255;28;20123;-74
2024/01/09 03:19:01;;;;;;;6.25;3.97;;;;;;;;;;5081302;28;20043;-74
2024/01/09 03:21:27;;;;;;;4.88;3.13;;;;;;;;;;5082507;28;20511;-74
2024/01/09 03:23:54;;;;;;;6.50;3.15;;;;;;;;;;5081345;28;20051;-74
2024/01/09 03:26:21;;;;;;;6.80;4.32;;;;;;;;;;5092975;28;20123;-74
2024/01/09 03:28:47;;;;;;;7.75;3.42;;;;;;;;;;5082614;28;20047;-73
2024/01/09 03:31:20;;;;;;;6.45;3.53;;;;;;;;;;5082503;28;20044;-74
2024/01/09 03:33:46;;;;;;;6.30;3.35;;;;;;;;;;5080880;28;20741;-74
2024/01/09 03:36:12;;;;;;;6.32;3.28;;;;;;;;;;5082254;28;20055;-73
2024/01/09 03:38:39;;;;;;;4.47;3.03;;;;;;;;;;5081245;28;20551;-74
2024/01/09 03:41:05;;;;;;;5.20;3.40;;;;;;;;;;5080763;28;20046;-74
2024/01/09 03:43:31;;;;;;;5.70;3.40;;;;;;;;;;5081464;28;20048;-74
2024/01/09 03:45:57;;;;;;;10.30;3.97;;;;;;;;;;5080906;28;20036;-73
2024/01/09 03:48:23;;;;;;;8.40;3.58;;;;;;;;;;5081318;28;20417;-74
2024/01/09 03:50:49;;;;;;;6.55;3.72;;;;;;;;;;5081019;28;20492;-74
2024/01/09 03:53:15;;;;;;;7.05;3.33;;;;;;;;;;5082635;28;20044;-74
2024/01/09 03:55:41;;;;;;;7.68;3.20;;;;;;;;;;5080550;28;20040;-74
2024/01/09 03:58:07;;;;;;;6.93;3.28;;;;;;;;;;5083186;28;20051;-73
2024/01/09 04:00:33;;;;;;;5.55;3.20;;;;;;;;;;5086004;28;20052;-74
2024/01/09 04:03:03;;;;;;;4.53;3.65;;;;;;;;;;5084653;28;20044;-74
2024/01/09 04:05:29;;;;;;;6.50;3.47;;;;;;;;;;5084590;28;20047;-74
2024/01/09 04:07:55;;;;;;;6.63;3.67;;;;;;;;;;5084799;28;20056;-74
2024/01/09 04:10:21;;;;;;;5.53;3.53;;;;;;;;;;5084415;28;20132;-74
2024/01/09 04:12:47;;;;;;;6.80;2.97;;;;;;;;;;5085021;28;20060;-74
2024/01/09 04:15:14;;;;;;;5.07;2.88;;;;;;;;;;5084607;28;20116;-74
2024/01/09 04:17:40;;;;;;;4.68;2.88;;;;;;;;;;5067610;28;20560;-73
2024/01/09 04:20:06;;;;;;;5.78;3.30;;;;;;;;;;5084402;28;20055;-73
2024/01/09 04:22:32;;;;;;;8.98;4.53;;;;;;;;;;5084672;28;20043;-73
2024/01/09 04:24:59;;;;;;;6.63;3.58;;;;;;;;;;5085717;28;20081;-74
2024/01/09 04:27:25;;;;;;;5.20;3.00;;;;;;;;;;5084602;28;20060;-74
2024/01/09 04:29:51;;;;;;;5.10;2.83;;;;;;;;;;5084482;28;20039;-73
2024/01/09 04:32:17;;;;;;;6.60;3.15;;;;;;;;;;5084264;28;20443;-73
2024/01/09 04:34:43;;;;;;;6.30;3.30;;;;;;;;;;5085293;28;20044;-74
2024/01/09 04:37:09;;;;;;;5.05;3.20;;;;;;;;;;5083254;28;20051;-74
2024/01/09 04:39:35;;;;;;;7.55;3.17;;;;;;;;;;5084628;28;20546;-73
2024/01/09 04:42:01;;;;;;;8.10;3.60;;;;;;;;;;5083846;28;20089;-73
2024/01/09 04:44:27;;;;;;;3.20;2.38;;;;;;;;;;5083578;28;20130;-73
2024/01/09 04:46:53;;;;;;;4.47;3.13;;;;;;;;;;5083770;28;20492;-74
2024/01/09 04:49:19;;;;;;;5.57;3.13;;;;;;;;;;5083399;28;20040;-73
2024/01/09 04:51:45;;;;;;;5.68;3.22;;;;;;;;;;5082936;28;20454;-73
2024/01/09 04:54:11;;;;;;;6.32;3.25;;;;;;;;;;5083116;28;20047;-74
2024/01/09 04:56:37;;;;;;;7.25;2.85;;;;;;;;;;5084566;28;20784;-73
2024/01/09 04:59:03;;;;;;;6.32;2.75;;;;;;;;;;5084310;28;20075;-73
2024/01/09 05:01:29;;;;;;;6.20;3.17;;;;;;;;;;5100820;28;20071;-73
2024/01/09 05:03:55;;;;;;;3.80;2.80;;;;;;;;;;5085827;28;20079;-74
2024/01/09 05:06:22;;;;;;;4.68;2.55;;;;;;;;;;5083987;28;20811;-74
2024/01/09 05:08:48;;;;;;;7.60;3.42;;;;;;;;;;5083619;28;20079;-74
2024/01/09 05:11:14;;;;;;;5.60;3.28;;;;;;;;;;5066938;28;20059;-74
2024/01/09 05:13:40;;;;;;;4.97;3.17;;;;;;;;;;5085066;28;20422;-73
2024/01/09 05:16:06;;;;;;;4.72;3.33;;;;;;;;;;5066362;28;20053;-74
2024/01/09 05:18:32;;;;;;;5.60;3.30;;;;;;;;;;5083748;28;20792;-73
2024/01/09 05:20:59;;;;;;;5.53;2.97;;;;;;;;;;5083870;28;20453;-73
2024/01/09 05:23:25;;;;;;;7.60;3.05;;;;;;;;;;5084783;28;20408;-74
2024/01/09 05:25:51;;;;;;;5.95;2.92;;;;;;;;;;5083389;28;20121;-74
2024/01/09 05:28:17;;;;;;;6.22;3.95;;;;;;;;;;5083234;28;20055;-73
2024/01/09 05:30:43;;;;;;;7.20;4.05;;;;;;;;;;5083457;28;20036;-73
2024/01/09 05:33:09;;;;;;;7.70;3.55;;;;;;;;;;5083382;28;20137;-73
2024/01/09 05:35:35;;;;;;;7.32;3.85;;;;;;;;;;5083507;28;20113;-73
2024/01/09 05:38:01;;;;;;;4.07;3.20;;;;;;;;;;5083174;28;20517;-73
2024/01/09 05:40:28;;;;;;;4.57;2.88;;;;;;;;;;5083287;28;20046;-74
2024/01/09 05:42:54;;;;;;;8.70;3.65;;;;;;;;;;5084461;28;20036;-73
2024/01/09 05:45:20;;;;;;;4.35;2.92;;;;;;;;;;5083013;28;20497;-73
2024/01/09 05:47:46;;;;;;;4.47;2.88;;;;;;;;;;5084284;28;20147;-73
2024/01/09 05:50:12;;;;;;;4.30;3.20;;;;;;;;;;5066100;28;20101;-74
2024/01/09 05:52:38;;;;;;;4.90;2.90;;;;;;;;;;5084022;28;20468;-74
2024/01/09 05:55:05;;;;;;;4.53;3.20;;;;;;;;;;5082898;28;20512;-73
2024/01/09 05:57:31;;;;;;;6.18;3.20;;;;;;;;;;5082161;28;20043;-73
2024/01/09 05:59:57;;;;;;;5.32;3.38;;;;;;;;;;5082905;28;20047;-74
2024/01/09 06:02:23;;;;;;;5.15;2.88;;;;;;;;;;5082220;28;20123;-73
2024/01/09 06:04:49;;;;;;;7.07;3.65;;;;;;;;;;5082352;28;20044;-73
2024/01/09 06:07:17;;;;;;;5.82;3.10;;;;;;;;;;5082652;28;20081;-74
2024/01/09 06:09:43;;;;;;;5.93;3.08;;;;;;;;;;5082725;28;20935;-74
2024/01/09 06:12:09;;;;;;;5.53;3.15;;;;;;;;;;5083847;28;20101;-73
2024/01/09 06:14:35;;;;;;;5.32;2.90;;;;;;;;;;5081405;28;20190;-74
2024/01/09 06:17:01;;;;;;;5.47;3.00;;;;;;;;;;5081760;28;20083;-73
2024/01/09 06:19:27;;;;;;;4.00;3.03;;;;;;;;;;5082176;28;20062;-74
2024/01/09 06:21:53;;;;;;;8.40;3.42;;;;;;;;;;5082109;28;20097;-73
2024/01/09 06:24:19;;;;;;;9.88;4.10;;;;;;;;;;5082176;28;20044;-73
2024/01/09 06:26:45;;;;;;;7.97;4.60;;;;;;;;;;5083489;28;20048;-74
2024/01/09 06:29:11;;;;;;;4.35;3.10;;;;;;;;;;5083560;28;20451;-74
2024/01/09 06:31:37;;;;;;;5.35;3.53;;;;;;;;;;5065319;28;20093;-74
2024/01/09 06:34:03;;;;;;;6.35;2.92;;;;;;;;;;5081734;28;20091;-73
2024/01/09 06:36:29;;;;;;;5.03;3.17;;;;;;;;;;5082061;28;20135;-74
2024/01/09 06:38:55;;;;;;;6.50;3.63;;;;;;;;;;5082061;28;20444;-74
2024/01/09 06:41:21;;;;;;;7.38;4.00;;;;;;;;;;5082213;28;20487;-73
2024/01/09 06:43:47;;;;;;;6.50;3.40;;;;;;;;;;5081639;28;20036;-73
2024/01/09 06:46:13;;;;;;;8.32;3.85;;;;;;;;;;5081997;28;20504;-74
2024/01/09 06:48:39;;;;;;;5.47;2.65;;;;;;;;;;5081445;28;20085;-74
2024/01/09 06:51:05;;;;;;;8.15;3.67;;;;;;;;;;5083162;28;20097;-74
2024/01/09 06:53:31;;;;;;;7.43;3.50;;;;;;;;;;5082970;28;20040;-73
2024/01/09 06:55:57;;;;;;;6.85;3.78;;;;;;;;;;5081366;28;20752;-74
2024/01/09 06:58:23;;;;;;;5.93;3.72;;;;;;;;;;5081671;28;20044;-73
2024/01/09 07:00:49;;;;;;;6.00;3.67;;;;;;;;;;5081303;28;20089;-74
2024/01/09 07:03:15;;;;;;;7.82;3.85;;;;;;;;;;5093447;28;20048;-74
2024/01/09 07:05:45;;;;;;;5.10;3.30;;;;;;;;;;5083091;28;20046;-73
2024/01/09 07:08:11;;;;;;;7.43;3.20;;;;;;;;;;5078856;28;20047;-73
2024/01/09 07:10:37;;;;;;;5.43;3.00;;;;;;;;;;5076484;28;20051;-72
2024/01/09 07:13:03;;;;;;;5.28;2.92;;;;;;;;;;5080568;28;20080;-72
2024/01/09 07:15:29;;;;;;;5.43;3.17;;;;;;;;;;5079400;28;20052;-72
2024/01/09 07:17:55;;;;;;;5.70;3.47;;;;;;;;;;5079613;28;20057;-72
2024/01/09 07:20:21;;;;;;;5.80;3.17;;;;;;;;;;5079339;28;20043;-72
2024/01/09 07:22:48;;;;;;;8.10;3.20;;;;;;;;;;5078846;28;20040;-72
2024/01/09 07:25:14;;;;;;;6.30;3.50;;;;;;;;;;5080081;28;20063;-72
2024/01/09 07:27:40;;;;;;;6.47;3.03;;;;;;;;;;5079892;28;20084;-72
2024/01/09 07:30:07;;;;;;;4.93;3.40;;;;;;;;;;5079327;28;20052;-72
2024/01/09 07:32:33;;;;;;;6.93;3.63;;;;;;;;;;5083607;28;20087;-72
2024/01/09 07:35:00;;;;;;;5.45;2.95;;;;;;;;;;5083215;28;20175;-72
2024/01/09 07:37:26;;;;;;;4.40;3.13;;;;;;;;;;5083865;28;20036;-72
2024/01/09 07:39:52;;;;;;;8.38;2.92;;;;;;;;;;5085895;28;20071;-72
2024/01/09 07:42:18;;;;;;;5.63;3.55;;;;;;;;;;5084151;28;20086;-74
2024/01/09 07:44:44;;;;;;;7.25;3.88;;;;;;;;;;5084005;28;20119;-73
2024/01/09 07:47:11;;;;;;;6.30;3.00;;;;;;;;;;5084052;28;20485;-71
2024/01/09 07:49:38;;;;;;;6.97;3.33;;;;;;;;;;5083638;28;20073;-71
2024/01/09 07:52:04;;;;;;;6.03;3.47;;;;;;;;;;5083787;28;20048;-72
2024/01/09 07:54:30;;;;;;;10.10;3.47;;;;;;;;;;5067215;28;20040;-71
2024/01/09 07:56:56;;;;;;;6.95;4.40;;;;;;;;;;5067132;28;20047;-72
2024/01/09 07:59:22;;;;;;;6.13;3.25;;;;;;;;;;5084959;28;20032;-72
2024/01/09 08:01:55;;;;;;;6.22;3.53;;;;;;;;;;5067129;28;20539;-72
2024/01/09 08:04:22;;;;;;;4.57;2.92;;;;;;;;;;5083738;28;20036;-72
2024/01/09 08:06:50;;;;;;;6.60;3.63;;;;;;;;;;5084480;28;20051;-72
2024/01/09 08:09:17;;;;;;;5.97;3.85;;;;;;;;;;5083996;28;20100;-72
2024/01/09 08:11:43;;;;;;;5.15;3.28;;;;;;;;;;5067333;28;20036;-72
2024/01/09 08:14:09;;;;;;;6.57;3.63;;;;;;;;;;5083723;28;20710;-72
2024/01/09 08:16:35;;;;;;;10.18;4.30;;;;;;;;;;5085327;28;20131;-71
2024/01/09 08:19:04;;;;;;;8.10;4.55;;;;;;;;;;5083586;28;20054;-73
2024/01/09 08:21:30;;;;;;;7.30;3.33;;;;;;;;;;5083549;28;20043;-72
2024/01/09 08:23:56;;;;;;;6.03;3.58;;;;;;;;;;5083778;28;20039;-71
2024/01/09 08:26:22;;;;;;;4.88;3.28;;;;;;;;;;5087037;28;20560;-71
2024/01/09 08:28:48;;;;;;;6.85;3.40;;;;;;;;;;5083791;28;20089;-72
2024/01/09 08:31:14;;;;;;;7.07;3.40;;;;;;;;;;5083328;28;20043;-72
2024/01/09 08:33:40;;;;;;;5.03;3.67;;;;;;;;;;5084892;28;20047;-72
2024/01/09 08:36:06;;;;;;;7.35;4.00;;;;;;;;;;5080631;28;20051;-72
2024/01/09 08:38:32;;;;;;;6.25;3.20;;;;;;;;;;5067948;28;20044;-72
2024/01/09 08:40:58;;;;;;;6.53;2.97;;;;;;;;;;5090266;28;20055;-72
2024/01/09 08:43:24;;;;;;;6.30;3.78;;;;;;;;;;5082641;28;20051;-71
2024/01/09 08:45:50;;;;;;;8.43;3.70;;;;;;;;;;5082865;28;20047;-73
2024/01/09 08:48:17;;;;;;;6.13;3.45;;;;;;;;;;5065545;28;20051;-73
2024/01/09 08:50:43;;;;;;;5.85;3.33;;;;;;;;;;5082631;28;20043;-72
2024/01/09 08:53:10;;;;;;;5.70;3.72;;;;;;;;;;5087125;28;20576;-72
2024/01/09 08:55:36;;;;;;;6.30;3.50;;;;;;;;;;5087484;28;20043;-72
2024/01/09 08:58:02;;;;;;;6.03;3.00;;;;;;;;;;5066073;28;20421;-73
2024/01/09 09:00:28;;;;;;;6.53;3.45;;;;;;;;;;5091223;28;20043;-73
2024/01/09 09:02:55;;;;;;;6.28;2.83;;;;;;;;;;5084071;28;20043;-73
2024/01/09 09:05:21;;;;;;;7.78;3.05;;;;;;;;;;5081884;28;20109;-74
2024/01/09 09:07:47;;;;;;;3.45;2.17;;;;;;;;;;5085373;28;20415;-74
2024/01/09 09:10:13;;;;;;;4.63;2.65;;;;;;;;;;5086725;28;20082;-74
2024/01/09 09:12:39;;;;;;;4.45;2.67;;;;;;;;;;5084197;28;20048;-74
2024/01/09 09:15:06;;;;;;;5.22;3.13;;;;;;;;;;5083425;28;20062;-75
2024/01/09 09:17:32;;;;;;;6.07;3.17;;;;;;;;;;5082195;28;20052;-72
2024/01/09 09:19:58;;;;;;;4.60;2.90;;;;;;;;;;5082784;28;21027;-73
2024/01/09 09:22:25;;;;;;;5.68;3.05;;;;;;;;;;5082457;28;20051;-72
2024/01/09 09:24:52;;;;;;;4.72;3.38;;;;;;;;;;5082925;28;20048;-72
2024/01/09 09:27:18;;;;;;;5.13;3.20;;;;;;;;;;5090159;28;20117;-72
2024/01/09 09:29:44;;;;;;;4.15;2.88;;;;;;;;;;5082877;28;20753;-72
2024/01/09 09:32:10;;;;;;;5.32;3.35;;;;;;;;;;5081897;28;20039;-72
2024/01/09 09:34:40;;;;;;;4.82;2.78;;;;;;;;;;5080892;28;20043;-72
2024/01/09 09:37:06;;;;;;;4.40;2.50;;;;;;;;;;5080952;28;20055;-73
2024/01/09 09:39:32;;;;;;;8.93;2.60;;;;;;;;;;5063463;28;20055;-73
2024/01/09 09:41:58;;;;;;;5.30;2.80;;;;;;;;;;5065060;28;20399;-72
2024/01/09 09:44:25;;;;;;;7.20;2.70;;;;;;;;;;5081927;28;20043;-73
2024/01/09 09:46:51;;;;;;;3.90;2.70;;;;;;;;;;5081456;28;20048;-73
2024/01/09 09:49:24;;;;;;;6.25;2.95;;;;;;;;;;5082880;28;20044;-72
2024/01/09 09:51:56;;;;;;;3.20;2.10;;;;;;;;;;5081832;28;20056;-73
2024/01/09 09:54:23;;;;;;;4.45;2.50;;;;;;;;;;5081090;28;20165;-73
2024/01/09 09:56:49;;;;;;;4.45;2.78;;;;;;;;;;5081360;28;20052;-74
2024/01/09 09:59:15;;;;;;;4.20;2.53;;;;;;;;;;5087943;28;20044;-72
2024/01/09 10:01:42;;;;;;;4.85;2.83;;;;;;;;;;5081414;28;20044;-72
2024/01/09 10:04:17;;;;;;;4.55;2.67;;;;;;;;;;5088266;28;20130;-73
2024/01/09 10:06:43;;;;;;;;;;;;;;;;;;5082208;28;20054;-73
2024/01/09 10:09:12;;;;;;;4.80;2.97;;;;;;;;;;5087014;28;19920;-73
2024/01/09 10:11:38;;;;;;;4.72;2.60;;;;;;;;;;5081377;28;20055;-74
2024/01/09 10:14:04;;;;;;;5.40;3.20;;;;;;;;;;5080775;28;20066;-73
2024/01/09 10:16:48;;;;;;;4.78;2.90;;;;;;;;;;5086506;28;20576;-72
2024/01/09 10:19:14;;;;;;;5.10;2.90;;;;;;;;;;5080005;28;20044;-72
2024/01/09 10:21:40;;;;;;;4.93;1.98;;;;;;;;;;5081382;28;20050;-74
2024/01/09 10:24:08;;;;;;;4.30;2.38;;;;;;;;;;5083622;28;20054;-72
2024/01/09 10:26:34;;;;;;;6.43;3.58;;;;;;;;;;5079486;28;20051;-73
2024/01/09 10:29:01;;;;;;;4.15;2.83;;;;;;;;;;5085127;28;20092;-73
2024/01/09 10:31:29;;;;;;;5.97;2.80;;;;;;;;;;5081528;28;20118;-71
2024/01/09 10:33:56;;;;;;;7.53;2.40;;;;;;;;;;5082008;28;20052;-73
2024/01/09 10:36:22;;;;;;;3.45;2.50;;;;;;;;;;5084063;28;20794;-72
2024/01/09 10:38:48;;;;;;;8.68;3.30;;;;;;;;;;5084425;28;20039;-72
2024/01/09 10:41:20;;;;;;;7.57;2.90;;;;;;;;;;5083470;28;20055;-72
2024/01/09 10:43:47;;;;;;;5.28;3.30;;;;;;;;;;5084470;28;20043;-72
2024/01/09 10:46:14;;;;;;;5.07;2.97;;;;;;;;;;5084048;28;20036;-73
2024/01/09 10:48:44;;;;;;;3.58;2.55;;;;;;;;;;5085740;28;20349;-73
2024/01/09 10:51:14;;;;;;;4.85;2.97;;;;;;;;;;5086945;28;20058;-72
2024/01/09 10:53:42;;;;;;;4.80;2.97;;;;;;;;;;5086369;28;20050;-73
2024/01/09 10:56:09;;;;;;;6.15;2.72;;;;;;;;;;5084776;28;20172;-73
2024/01/09 10:58:36;;;;;;;6.47;2.90;;;;;;;;;;5091818;28;20442;-71
2024/01/09 11:01:02;;;;;;;5.03;3.17;;;;;;;;;;5081222;28;20067;-72
2024/01/09 11:03:28;;;;;;;5.50;2.50;;;;;;;;;;5088994;28;20745;-72
2024/01/09 11:05:59;;;;;;;5.35;3.10;;;;;;;;;;5089530;28;20039;-72
2024/01/09 11:08:25;;;;;;;7.35;3.40;;;;;;;;;;5091528;28;20039;-72
2024/01/09 11:10:52;;;;;;;5.80;2.90;;;;;;;;;;5081023;28;20040;-73
2024/01/09 11:13:19;;;;;;;5.45;3.03;;;;;;;;;;5082901;28;20076;-72
2024/01/09 11:15:52;;;;;;;5.82;3.10;;;;;;;;;;5081160;28;20056;-72
2024/01/09 11:18:21;;;;;;;6.03;3.35;;;;;;;;;;5084142;28;20075;-73
2024/01/09 11:20:48;;;;;;;4.70;2.33;;;;;;;;;;5084553;28;21068;-73
2024/01/09 11:23:14;;;;;;;5.38;2.85;;;;;;;;;;5066689;28;20119;-73
2024/01/09 11:25:40;;;;;;;4.78;3.20;;;;;;;;;;5082820;28;20885;-72
2024/01/09 11:28:07;;;;;;;5.57;3.25;;;;;;;;;;5081364;28;20048;-72
2024/01/09 11:30:33;;;;;;;4.45;2.78;;;;;;;;;;5080705;28;20071;-74
2024/01/09 11:33:19;;;;;;;5.43;3.42;;;;;;;;;;5081055;28;20663;-72
2024/01/09 11:35:46;;;;;;;4.15;2.75;;;;;;;;;;5081430;28;20144;-72
2024/01/09 11:38:12;;;;;;;4.47;2.92;;;;;;;;;;5063369;28;20123;-72
2024/01/09 11:40:38;;;;;;;6.07;2.70;;;;;;;;;;5080665;28;20046;-72
2024/01/09 11:43:04;;;;;;;6.28;2.65;;;;;;;;;;5082718;28;20039;-73
2024/01/09 11:45:30;;;;;;;3.50;2.38;;;;;;;;;;5079945;28;20079;-74
2024/01/09 11:47:56;;;;;;;5.60;3.22;;;;;;;;;;5082488;28;20460;-75
2024/01/09 11:50:22;;;;;;;5.68;3.80;;;;;;;;;;5066422;28;20573;-74
2024/01/09 11:52:49;;;;;;;6.47;3.40;;;;;;;;;;5082279;28;20129;-74
2024/01/09 11:55:15;;;;;;;6.72;3.17;;;;;;;;;;5084568;28;20099;-73
2024/01/09 11:57:41;;;;;;;4.43;2.70;;;;;;;;;;5082581;28;20047;-74
2024/01/09 12:00:09;;;;;;;6.90;3.00;;;;;;;;;;5080474;28;20048;-74
2024/01/09 12:02:39;;;;;;;6.57;2.80;;;;;;;;;;5080393;28;20563;-73
2024/01/09 12:05:06;;;;;;;5.40;2.60;;;;;;;;;;5080886;28;20058;-74
2024/01/09 12:07:39;;;;;;;4.90;2.92;;;;;;;;;;5080287;28;20520;-73
2024/01/09 12:10:06;;;;;;;4.00;2.83;;;;;;;;;;5065421;28;20155;-73
2024/01/09 12:12:32;;;;;;;4.63;2.63;;;;;;;;;;5079925;28;20044;-73
2024/01/09 12:14:59;;;;;;;5.20;2.97;;;;;;;;;;5080220;28;20677;-73
2024/01/09 12:17:33;;;;;;;6.18;2.78;;;;;;;;;;5080389;28;20771;-74
2024/01/09 12:19:59;;;;;;;6.35;2.88;;;;;;;;;;5084495;28;20455;-73
2024/01/09 12:22:25;;;;;;;4.07;2.63;;;;;;;;;;5087089;28;20047;-73
2024/01/09 12:24:52;;;;;;;5.18;3.08;;;;;;;;;;5083265;28;20035;-74
2024/01/09 12:27:23;;;;;;;5.05;3.13;;;;;;;;;;5090666;28;20126;-74
2024/01/09 12:29:49;;;;;;;4.63;2.92;;;;;;;;;;5087973;28;20143;-73
2024/01/09 12:32:15;;;;;;;5.57;3.25;;;;;;;;;;5090557;28;20044;-73
2024/01/09 12:34:41;;;;;;;5.18;3.20;;;;;;;;;;5090924;28;20398;-74
2024/01/09 12:37:08;;;;;;;4.53;2.83;;;;;;;;;;5081673;28;20464;-73
2024/01/09 12:39:37;;;;;;;4.53;2.80;;;;;;;;;;5084586;28;20040;-73
2024/01/09 12:42:06;;;;;;;6.32;2.95;;;;;;;;;;5083494;28;20059;-73
2024/01/09 12:44:32;;;;;;;4.05;2.40;;;;;;;;;;5066927;28;20043;-74
2024/01/09 12:46:58;;;;;;;3.55;2.50;;;;;;;;;;5085575;28;20156;-73
2024/01/09 12:49:24;;;;;;;3.75;2.58;;;;;;;;;;5084682;28;20097;-74
2024/01/09 12:51:55;;;;;;;5.15;3.22;;;;;;;;;;5083864;28;20072;-73
2024/01/09 12:54:21;;;;;;;6.53;2.47;;;;;;;;;;5083688;28;20050;-73
2024/01/09 12:56:47;;;;;;;3.13;2.28;;;;;;;;;;5085426;28;20497;-72
2024/01/09 12:59:16;;;;;;;3.78;2.65;;;;;;;;;;5083372;28;20048;-73
2024/01/09 13:01:42;;;;;;;5.88;2.92;;;;;;;;;;5083484;28;20065;-73
2024/01/09 13:04:08;;;;;;;4.30;2.53;;;;;;;;;;5085058;28;20059;-72
2024/01/09 13:06:35;;;;;;;3.45;2.20;;;;;;;;;;5084136;28;20048;-73
2024/01/09 13:09:01;;;;;;;6.57;2.63;;;;;;;;;;5069012;28;20055;-73
2024/01/09 13:11:27;;;;;;;2.90;2.60;;;;;;;;;;5083770;28;20047;-74
2024/01/09 13:13:53;;;;;;;6.65;2.85;;;;;;;;;;5083944;28;20043;-74
2024/01/09 13:16:19;;;;;;;4.28;2.63;;;;;;;;;;5084220;28;20067;-72
2024/01/09 13:18:45;;;;;;;4.70;2.50;;;;;;;;;;5086275;28;20044;-72
2024/01/09 13:21:11;;;;;;;5.18;2.88;;;;;;;;;;5083171;28;20135;-73
2024/01/09 13:23:37;;;;;;;5.22;3.25;;;;;;;;;;5066233;28;20036;-73
2024/01/09 13:26:04;;;;;;;4.00;2.78;;;;;;;;;;5099071;28;20051;-72
2024/01/09 13:28:30;;;;;;;5.68;2.35;;;;;;;;;;5082451;28;20085;-72
2024/01/09 13:30:56;;;;;;;5.53;3.10;;;;;;;;;;5085405;28;20079;-72
2024/01/09 13:33:22;;;;;;;4.82;2.65;;;;;;;;;;5083479;28;20051;-72
2024/01/09 13:35:48;;;;;;;6.60;3.22;;;;;;;;;;5082761;28;20094;-72
2024/01/09 13:38:16;;;;;;;3.53;2.28;;;;;;;;;;5081407;28;20048;-72
2024/01/09 13:40:42;;;;;;;3.90;2.65;;;;;;;;;;5078995;28;20120;-73
2024/01/09 13:43:08;;;;;;;2.75;2.28;;;;;;;;;;5083097;28;20383;-73
2024/01/09 13:45:34;;;;;;;4.65;2.72;;;;;;;;;;5082107;28;20105;-72
2024/01/09 13:48:00;;;;;;;3.42;1.90;;;;;;;;;;5081955;28;20043;-73
2024/01/09 13:50:26;;;;;;;3.17;2.67;;;;;;;;;;5079891;28;20201;-73
2024/01/09 13:52:52;;;;;;;3.55;2.70;;;;;;;;;;5083688;28;20042;-74
2024/01/09 13:55:19;;;;;;;3.33;2.55;;;;;;;;;;5086111;28;20048;-72
2024/01/09 13:57:45;;;;;;;6.47;2.88;;;;;;;;;;5084548;28;20485;-72
2024/01/09 14:00:16;;;;;;;3.47;2.67;;;;;;;;;;5084691;28;20114;-73
2024/01/09 14:02:44;;;;;;;3.80;2.03;;;;;;;;;;5082559;28;20051;-71
2024/01/09 14:05:11;;;;;;;4.78;2.67;;;;;;;;;;5084047;28;20052;-70
2024/01/09 14:07:38;;;;;;;6.70;1.98;;;;;;;;;;5083604;28;20044;-73
2024/01/09 14:10:08;;;;;;;2.17;1.98;;;;;;;;;;5078800;28;20083;-72
2024/01/09 14:12:35;;;;;;;4.05;2.38;;;;;;;;;;5083887;28;20054;-72
2024/01/09 14:15:02;;;;;;;3.55;2.40;;;;;;;;;;5066600;28;20056;-72
2024/01/09 14:17:28;;;;;;;4.03;2.42;;;;;;;;;;5084760;28;20138;-72
2024/01/09 14:19:54;;;;;;;4.18;2.50;;;;;;;;;;5071323;28;20127;-72
2024/01/09 14:22:21;;;;;;;4.15;2.40;;;;;;;;;;5086089;28;20048;-72
2024/01/09 14:24:47;;;;;;;4.78;2.60;;;;;;;;;;5084999;28;20040;-72
2024/01/09 14:27:13;;;;;;;3.40;2.33;;;;;;;;;;5081478;28;20048;-73
2024/01/09 14:29:39;;;;;;;3.42;2.08;;;;;;;;;;5082349;28;20043;-72
2024/01/09 14:32:05;;;;;;;3.03;2.13;;;;;;;;;;5082651;28;20432;-72
2024/01/09 14:34:31;;;;;;;3.63;2.30;;;;;;;;;;5081566;28;20047;-72
2024/01/09 14:36:58;;;;;;;2.15;1.95;;;;;;;;;;5082764;28;20050;-73
2024/01/09 14:39:24;;;;;;;7.55;2.28;;;;;;;;;;5084378;28;20401;-72